createdAt,value
2023-02-17T00:02:05.583Z,55.00
2023-02-17T00:04:33.558Z,54.81
2023-02-17T00:07:01.911Z,55.03
2023-02-17T00:09:28.982Z,54.98
2023-02-17T00:11:55.868Z,55.09
2023-02-17T00:14:23.215Z,55.08
2023-02-17T00:16:50.544Z,55.22
2023-02-17T00:19:26.471Z,55.29
2023-02-17T00:21:58.816Z,55.40
2023-02-17T00:24:27.275Z,55.13
2023-02-17T00:26:54.540Z,55.45
2023-02-17T00:29:22.226Z,55.28
2023-02-17T00:31:49.196Z,55.60
2023-02-17T00:34:18.010Z,55.57
2023-02-17T00:36:44.835Z,55.53
2023-02-17T00:39:14.697Z,55.51
2023-02-17T00:41:42.474Z,55.81
2023-02-17T00:44:17.519Z,55.70
2023-02-17T00:46:45.598Z,55.85
2023-02-17T00:49:27.013Z,55.75
2023-02-17T00:51:54.728Z,55.87
2023-02-17T00:54:21.745Z,55.94
2023-02-17T00:56:48.667Z,56.00
2023-02-17T00:59:15.596Z,56.00
2023-02-17T01:01:42.702Z,56.00
2023-02-17T01:04:10.051Z,56.13
2023-02-17T01:06:39.232Z,56.22
2023-02-17T01:09:08.200Z,56.14
2023-02-17T01:11:36.689Z,56.15
2023-02-17T01:14:06.580Z,56.21
2023-02-17T01:16:46.168Z,56.14
2023-02-17T01:19:15.468Z,56.21
2023-02-17T01:21:42.454Z,56.44
2023-02-17T01:24:09.799Z,56.37
2023-02-17T01:26:37.695Z,56.51
2023-02-17T01:29:06.232Z,56.25
2023-02-17T01:31:33.593Z,56.50
2023-02-17T01:34:03.203Z,56.67
2023-02-17T01:36:30.196Z,56.56
2023-02-17T01:38:57.627Z,56.61
2023-02-17T01:41:29.562Z,56.49
2023-02-17T01:44:15.924Z,56.78
2023-02-17T01:46:45.429Z,56.55
2023-02-17T01:49:39.743Z,56.60
2023-02-17T01:52:23.966Z,56.90
2023-02-17T01:54:56.084Z,56.61
2023-02-17T01:57:28.155Z,56.51
2023-02-17T01:59:55.781Z,56.67
2023-02-17T02:02:23.234Z,56.67
2023-02-17T02:04:54.161Z,56.82
2023-02-17T02:07:26.865Z,56.55
2023-02-17T02:09:56.635Z,56.68
2023-02-17T02:12:27.046Z,56.66
2023-02-17T02:14:57.477Z,56.68
2023-02-17T02:17:33.154Z,56.94
2023-02-17T02:20:38.781Z,56.88
2023-02-17T02:23:24.239Z,56.98
2023-02-17T02:26:09.552Z,56.99
2023-02-17T02:29:04.875Z,56.80
2023-02-17T02:31:53.261Z,56.90
2023-02-17T02:34:27.041Z,56.68
2023-02-17T02:37:03.587Z,56.87
2023-02-17T02:39:35.623Z,57.03
2023-02-17T02:42:13.384Z,56.98
2023-02-17T02:44:40.524Z,56.85
2023-02-17T02:47:42.313Z,57.12
2023-02-17T02:50:11.476Z,57.06
2023-02-17T02:53:35.603Z,56.94
2023-02-17T02:56:10.108Z,57.08
2023-02-17T02:59:10.823Z,57.01
2023-02-17T03:02:09.920Z,56.98
2023-02-17T03:04:56.371Z,56.88
2023-02-17T03:07:35.256Z,56.91
2023-02-17T03:10:02.827Z,56.79
2023-02-17T03:12:30.703Z,57.01
2023-02-17T03:15:03.775Z,57.02
2023-02-17T03:17:33.019Z,56.99
2023-02-17T03:20:03.831Z,56.82
2023-02-17T03:22:35.649Z,57.03
2023-02-17T03:25:03.328Z,56.97
2023-02-17T03:27:30.214Z,57.05
2023-02-17T03:29:57.110Z,57.20
2023-02-17T03:32:24.173Z,57.07
2023-02-17T03:34:51.116Z,57.14
2023-02-17T03:37:17.943Z,57.04
2023-02-17T03:39:44.849Z,56.99
2023-02-17T03:42:11.765Z,56.94
2023-02-17T03:44:38.577Z,56.64
2023-02-17T03:47:05.871Z,56.85
2023-02-17T03:49:32.766Z,56.87
2023-02-17T03:51:59.805Z,56.75
2023-02-17T03:54:27.311Z,56.71
2023-02-17T03:56:54.171Z,56.69
2023-02-17T03:59:21.039Z,56.73
2023-02-17T04:01:47.904Z,56.83
2023-02-17T04:04:14.801Z,56.85
2023-02-17T04:06:41.786Z,56.63
2023-02-17T04:09:08.671Z,56.53
2023-02-17T04:11:35.603Z,56.46
2023-02-17T04:14:02.499Z,56.41
2023-02-17T04:16:29.455Z,56.51
2023-02-17T04:18:56.562Z,56.87
2023-02-17T04:21:23.409Z,56.66
2023-02-17T04:23:50.279Z,56.58
2023-02-17T04:26:17.274Z,56.59
2023-02-17T04:28:44.289Z,56.37
2023-02-17T04:31:11.227Z,56.68
2023-02-17T04:33:38.491Z,56.68
2023-02-17T04:36:06.411Z,56.35
2023-02-17T04:38:34.107Z,56.85
2023-02-17T04:41:01.379Z,56.53
2023-02-17T04:43:29.305Z,56.48
2023-02-17T04:45:56.830Z,56.67
2023-02-17T04:48:24.729Z,56.39
2023-02-17T04:50:51.615Z,56.39
2023-02-17T04:53:19.142Z,56.58
2023-02-17T04:55:50.719Z,56.63
2023-02-17T04:58:18.701Z,56.58
2023-02-17T05:00:48.016Z,56.45
2023-02-17T05:03:14.897Z,56.53
2023-02-17T05:05:41.741Z,56.53
2023-02-17T05:08:08.788Z,56.60
2023-02-17T05:10:35.730Z,56.48
2023-02-17T05:13:02.590Z,56.37
2023-02-17T05:15:29.461Z,56.26
2023-02-17T05:17:56.278Z,56.37
2023-02-17T05:20:23.156Z,56.53
2023-02-17T05:22:49.973Z,56.34
2023-02-17T05:25:16.877Z,56.32
2023-02-17T05:27:43.673Z,56.18
2023-02-17T05:30:11.417Z,56.32
2023-02-17T05:32:38.304Z,56.16
2023-02-17T05:35:05.392Z,55.92
2023-02-17T05:37:32.201Z,56.07
2023-02-17T05:39:59.057Z,56.25
2023-02-17T05:42:29.034Z,56.09
2023-02-17T05:44:56.335Z,56.02
2023-02-17T05:47:24.169Z,56.02
2023-02-17T05:49:51.575Z,56.27
2023-02-17T05:52:18.741Z,56.02
2023-02-17T05:54:45.770Z,55.99
2023-02-17T05:57:12.791Z,55.73
2023-02-17T05:59:39.809Z,55.54
2023-02-17T06:02:06.674Z,55.53
2023-02-17T06:04:33.884Z,55.43
2023-02-17T06:07:00.763Z,55.52
2023-02-17T06:09:28.290Z,55.60
2023-02-17T06:11:55.207Z,55.37
2023-02-17T06:14:22.054Z,55.28
2023-02-17T06:16:49.012Z,55.32
2023-02-17T06:19:15.870Z,55.43
2023-02-17T06:21:42.734Z,56.41
2023-02-17T06:24:10.135Z,56.26
2023-02-17T06:26:36.998Z,55.81
2023-02-17T06:29:03.866Z,55.49
2023-02-17T06:31:30.789Z,55.64
2023-02-17T06:33:57.662Z,55.44
2023-02-17T06:36:24.669Z,55.30
2023-02-17T06:38:51.535Z,55.16
2023-02-17T06:41:18.370Z,55.12
2023-02-17T06:43:45.206Z,55.54
2023-02-17T06:46:12.233Z,55.29
2023-02-17T06:48:39.141Z,55.54
2023-02-17T06:51:06.118Z,55.18
2023-02-17T06:53:32.962Z,55.34
2023-02-17T06:55:59.974Z,55.41
2023-02-17T06:58:27.164Z,55.57
2023-02-17T07:00:54.067Z,55.77
2023-02-17T07:03:20.937Z,55.70
2023-02-17T07:05:47.768Z,55.53
2023-02-17T07:08:14.654Z,55.31
2023-02-17T07:10:41.599Z,54.89
2023-02-17T07:13:08.829Z,55.16
2023-02-17T07:15:35.824Z,54.89
2023-02-17T07:18:03.485Z,54.11
2023-02-17T07:20:32.251Z,54.22
2023-02-17T07:23:00.820Z,54.30
2023-02-17T07:25:27.676Z,50.00
2023-02-17T07:27:54.540Z,49.26
2023-02-17T07:30:21.642Z,49.77
2023-02-17T07:32:48.617Z,52.45
2023-02-17T07:35:15.509Z,53.52
2023-02-17T07:37:42.391Z,54.34
2023-02-17T07:40:10.009Z,54.57
2023-02-17T07:42:36.921Z,54.66
2023-02-17T07:45:04.110Z,54.85
2023-02-17T07:47:32.859Z,54.65
2023-02-17T07:49:59.873Z,54.88
2023-02-17T07:52:26.756Z,55.26
2023-02-17T07:54:53.660Z,55.24
2023-02-17T07:57:20.600Z,55.38
2023-02-17T07:59:48.369Z,55.27
2023-02-17T08:02:15.540Z,55.32
2023-02-17T08:04:42.841Z,55.24
2023-02-17T08:07:09.805Z,55.24
2023-02-17T08:09:56.974Z,55.40
2023-02-17T08:12:42.719Z,55.54
2023-02-17T08:15:11.094Z,55.35
2023-02-17T08:17:38.466Z,54.45
2023-02-17T08:20:09.073Z,54.27
2023-02-17T08:22:36.644Z,54.12
2023-02-17T08:25:06.459Z,54.43
2023-02-17T08:27:33.520Z,54.40
2023-02-17T08:30:01.176Z,54.27
2023-02-17T08:32:28.335Z,54.47
2023-02-17T08:34:58.732Z,54.49
2023-02-17T08:37:26.565Z,55.53
2023-02-17T08:39:53.921Z,55.55
2023-02-17T08:42:20.898Z,55.39
2023-02-17T08:44:48.019Z,54.63
2023-02-17T08:47:15.475Z,54.29
2023-02-17T08:49:42.384Z,53.90
2023-02-17T08:52:09.438Z,53.93
2023-02-17T08:54:37.907Z,53.85
2023-02-17T08:57:05.678Z,53.80
2023-02-17T08:59:35.893Z,53.55
2023-02-17T09:02:03.317Z,53.63
2023-02-17T09:04:31.404Z,53.39
2023-02-17T09:06:59.606Z,53.51
2023-02-17T09:09:27.921Z,53.43
2023-02-17T09:11:57.394Z,53.27
2023-02-17T09:14:25.560Z,53.37
2023-02-17T09:16:54.881Z,53.44
2023-02-17T09:19:24.126Z,53.38
2023-02-17T09:21:51.647Z,52.87
2023-02-17T09:24:19.940Z,53.20
2023-02-17T09:26:47.061Z,53.27
2023-02-17T09:29:14.409Z,53.08
2023-02-17T09:31:41.640Z,53.31
2023-02-17T09:34:09.081Z,53.30
2023-02-17T09:36:40.965Z,53.25
2023-02-17T09:39:12.996Z,53.55
2023-02-17T09:41:52.224Z,53.38
2023-02-17T09:44:24.421Z,53.25
2023-02-17T09:47:02.477Z,53.26
2023-02-17T09:49:39.285Z,53.21
2023-02-17T09:52:13.916Z,52.90
2023-02-17T09:55:05.591Z,52.89
2023-02-17T09:57:40.837Z,53.13
2023-02-17T10:00:13.177Z,53.00
2023-02-17T10:03:04.615Z,52.83
2023-02-17T10:05:39.831Z,53.19
2023-02-17T10:08:17.166Z,52.07
2023-02-17T10:10:53.984Z,51.58
2023-02-17T10:13:25.322Z,51.84
2023-02-17T10:15:53.935Z,51.83
2023-02-17T10:18:30.677Z,51.80
2023-02-17T10:21:19.752Z,51.74
2023-02-17T10:23:47.950Z,51.49
2023-02-17T10:26:46.548Z,51.48
2023-02-17T10:29:38.196Z,51.53
2023-02-17T10:32:23.987Z,51.70
2023-02-17T10:35:16.393Z,51.38
2023-02-17T10:37:57.893Z,51.54
2023-02-17T10:40:28.433Z,51.39
2023-02-17T10:43:07.789Z,51.35
2023-02-17T10:45:49.934Z,51.43
2023-02-17T10:48:28.814Z,51.11
2023-02-17T10:51:01.438Z,51.13
2023-02-17T10:53:36.691Z,51.12
2023-02-17T10:56:12.393Z,51.03
2023-02-17T10:59:06.889Z,50.79
2023-02-17T11:01:34.467Z,50.78
2023-02-17T11:04:13.342Z,50.93
2023-02-17T11:06:53.357Z,51.03
2023-02-17T11:09:33.058Z,50.79
2023-02-17T11:12:06.591Z,50.99
2023-02-17T11:14:37.084Z,50.80
2023-02-17T11:17:17.084Z,51.34
2023-02-17T11:19:56.298Z,51.21
2023-02-17T11:22:46.087Z,51.34
2023-02-17T11:25:28.217Z,51.12
2023-02-17T11:28:00.679Z,51.14
2023-02-17T11:30:30.030Z,51.82
2023-02-17T11:32:57.475Z,51.35
2023-02-17T11:35:47.402Z,51.11
2023-02-17T11:38:27.316Z,50.95
2023-02-17T11:41:03.066Z,51.07
2023-02-17T11:43:31.767Z,50.50
2023-02-17T11:46:17.678Z,48.97
2023-02-17T11:49:08.073Z,47.74
2023-02-17T11:51:59.657Z,48.44
2023-02-17T11:54:37.303Z,49.17
2023-02-17T11:57:19.409Z,50.07
2023-02-17T12:00:13.410Z,50.31
2023-02-17T12:03:17.404Z,46.68
2023-02-17T12:06:23.198Z,51.38
2023-02-17T12:08:52.861Z,52.73
2023-02-17T12:11:37.884Z,52.92
2023-02-17T12:14:31.704Z,52.61
2023-02-17T12:17:03.255Z,52.99
2023-02-17T12:20:03.018Z,52.95
2023-02-17T12:22:35.819Z,53.13
2023-02-17T12:25:24.448Z,53.31
2023-02-17T12:28:28.982Z,53.37
2023-02-17T12:31:11.451Z,53.57
2023-02-17T12:34:10.357Z,53.72
2023-02-17T12:36:39.730Z,53.82
2023-02-17T12:39:31.244Z,53.84
2023-02-17T12:42:19.707Z,53.71
2023-02-17T12:45:18.989Z,53.65
2023-02-17T12:48:04.212Z,53.87
2023-02-17T12:51:00.874Z,53.71
2023-02-17T12:53:58.867Z,53.74
2023-02-17T12:56:25.987Z,53.71
2023-02-17T12:58:56.839Z,53.83
2023-02-17T13:01:29.942Z,53.80
2023-02-17T13:04:00.067Z,53.88
2023-02-17T13:06:36.940Z,53.84
2023-02-17T13:09:25.768Z,53.82
2023-02-17T13:11:52.747Z,53.63
2023-02-17T13:14:40.251Z,53.68
2023-02-17T13:17:21.597Z,53.93
2023-02-17T13:19:48.544Z,54.03
2023-02-17T13:22:23.726Z,53.92
2023-02-17T13:24:55.673Z,53.66
2023-02-17T13:27:28.410Z,53.25
2023-02-17T13:30:09.787Z,52.83
2023-02-17T13:32:38.925Z,50.78
2023-02-17T13:35:06.221Z,49.92
2023-02-17T13:37:33.184Z,47.45
2023-02-17T13:40:19.983Z,47.06
2023-02-17T13:42:48.758Z,46.03
2023-02-17T13:46:00.021Z,46.23
2023-02-17T13:48:30.294Z,44.92
2023-02-17T13:51:03.243Z,45.10
2023-02-17T13:53:37.709Z,44.32
2023-02-17T13:56:24.852Z,44.68
2023-02-17T13:58:51.765Z,44.64
2023-02-17T14:01:25.855Z,43.89
2023-02-17T14:03:55.529Z,44.16
2023-02-17T14:06:32.822Z,43.88
2023-02-17T14:08:59.976Z,43.90
2023-02-17T14:11:30.401Z,43.60
2023-02-17T14:14:00.164Z,43.86
2023-02-17T14:16:28.638Z,44.03
2023-02-17T14:19:04.754Z,43.23
2023-02-17T14:21:31.781Z,43.30
2023-02-17T14:23:59.676Z,43.39
2023-02-17T14:26:26.654Z,43.10
2023-02-17T14:28:56.606Z,43.12
2023-02-17T14:31:24.619Z,42.98
2023-02-17T14:34:01.750Z,42.31
2023-02-17T14:36:39.050Z,42.51
2023-02-17T14:39:08.314Z,42.05
2023-02-17T14:41:35.746Z,42.11
2023-02-17T14:44:02.749Z,42.38
2023-02-17T14:46:29.844Z,42.47
2023-02-17T14:48:56.782Z,41.93
2023-02-17T14:51:26.957Z,41.94
2023-02-17T14:53:54.212Z,42.64
2023-02-17T14:57:03.628Z,42.44
2023-02-17T14:59:30.507Z,42.58
2023-02-17T15:01:57.777Z,42.07
2023-02-17T15:04:25.146Z,42.62
2023-02-17T15:06:54.932Z,42.37
2023-02-17T15:09:29.265Z,42.65
2023-02-17T15:11:57.477Z,42.85
2023-02-17T15:14:24.917Z,42.92
2023-02-17T15:16:52.059Z,43.40
2023-02-17T15:19:18.973Z,43.25
2023-02-17T15:21:51.759Z,43.13
2023-02-17T15:24:27.290Z,43.23
2023-02-17T15:26:56.652Z,43.57
2023-02-17T15:29:25.091Z,43.22
2023-02-17T15:31:54.516Z,42.96
2023-02-17T15:34:33.084Z,42.94
2023-02-17T15:37:03.055Z,42.86
2023-02-17T15:39:30.069Z,42.58
2023-02-17T15:42:01.033Z,42.30
2023-02-17T15:44:36.581Z,42.86
2023-02-17T15:47:03.936Z,42.68
2023-02-17T15:49:30.952Z,42.74
2023-02-17T15:51:57.935Z,42.67
2023-02-17T15:54:24.847Z,43.13
2023-02-17T15:56:53.309Z,42.34
2023-02-17T15:59:24.821Z,42.42
2023-02-17T16:01:52.234Z,42.75
2023-02-17T16:04:19.225Z,43.19
2023-02-17T16:06:46.178Z,44.20
2023-02-17T16:09:13.110Z,44.87
2023-02-17T16:11:54.614Z,45.63
2023-02-17T16:14:29.111Z,47.94
2023-02-17T16:16:56.209Z,48.89
2023-02-17T16:19:23.169Z,47.65
2023-02-17T16:21:50.173Z,46.61
2023-02-17T16:24:17.130Z,45.50
2023-02-17T16:26:44.404Z,45.53
2023-02-17T16:29:17.246Z,46.71
2023-02-17T16:31:45.209Z,47.57
2023-02-17T16:34:21.917Z,47.58
2023-02-17T16:36:50.783Z,48.49
2023-02-17T16:39:20.481Z,48.61
2023-02-17T16:41:48.077Z,48.42
2023-02-17T16:44:17.184Z,46.21
2023-02-17T16:46:59.834Z,46.57
2023-02-17T16:49:34.013Z,47.49
2023-02-17T16:52:06.074Z,47.85
2023-02-17T16:54:35.467Z,47.72
2023-02-17T16:57:02.853Z,47.98
2023-02-17T16:59:30.171Z,47.98
2023-02-17T17:01:57.136Z,48.33
2023-02-17T17:04:24.856Z,48.69
2023-02-17T17:06:52.591Z,48.36
2023-02-17T17:09:24.994Z,48.60
2023-02-17T17:11:53.271Z,48.65
2023-02-17T17:14:21.817Z,48.69
2023-02-17T17:16:56.054Z,48.65
2023-02-17T17:19:23.381Z,48.59
2023-02-17T17:21:50.644Z,48.43
2023-02-17T17:24:17.767Z,48.65
2023-02-17T17:26:46.993Z,48.52
2023-02-17T17:29:16.107Z,48.39
2023-02-17T17:31:43.834Z,48.68
2023-02-17T17:34:11.173Z,48.92
2023-02-17T17:36:44.076Z,48.44
2023-02-17T17:39:17.852Z,48.89
2023-02-17T17:41:45.277Z,48.74
2023-02-17T17:44:12.319Z,48.94
2023-02-17T17:46:39.992Z,49.07
2023-02-17T17:49:10.619Z,48.94
2023-02-17T17:51:39.030Z,48.93
2023-02-17T17:54:06.979Z,48.68
2023-02-17T17:56:38.046Z,48.69
2023-02-17T17:59:05.766Z,48.70
2023-02-17T18:01:33.137Z,48.38
2023-02-17T18:04:01.113Z,48.15
2023-02-17T18:06:30.074Z,47.98
2023-02-17T18:09:02.024Z,47.71
2023-02-17T18:11:29.287Z,47.90
2023-02-17T18:14:00.017Z,47.73
2023-02-17T18:16:29.078Z,47.45
2023-02-17T18:18:58.280Z,47.44
2023-02-17T18:21:25.571Z,47.42
2023-02-17T18:23:52.476Z,47.17
2023-02-17T18:26:19.822Z,46.75
2023-02-17T18:28:47.907Z,46.60
2023-02-17T18:31:17.143Z,46.78
2023-02-17T18:33:44.142Z,46.70
2023-02-17T18:36:15.227Z,46.77
2023-02-17T18:38:43.267Z,46.54
2023-02-17T18:41:22.695Z,46.58
2023-02-17T18:43:50.331Z,46.75
2023-02-17T18:46:18.077Z,46.53
2023-02-17T18:48:45.181Z,46.62
2023-02-17T18:51:14.976Z,46.41
2023-02-17T18:53:42.548Z,46.40
2023-02-17T18:56:21.100Z,46.44
2023-02-17T18:58:49.835Z,46.05
2023-02-17T19:01:26.004Z,46.37
2023-02-17T19:03:53.715Z,46.51
2023-02-17T19:06:23.987Z,46.20
2023-02-17T19:08:51.324Z,46.42
2023-02-17T19:11:20.440Z,46.46
2023-02-17T19:13:47.700Z,46.75
2023-02-17T19:16:19.061Z,46.75
2023-02-17T19:18:46.868Z,46.60
2023-02-17T19:21:14.424Z,46.79
2023-02-17T19:23:42.212Z,46.95
2023-02-17T19:26:11.961Z,46.73
2023-02-17T19:28:40.282Z,47.28
2023-02-17T19:31:09.894Z,47.14
2023-02-17T19:33:37.613Z,47.07
2023-02-17T19:36:19.272Z,47.38
2023-02-17T19:38:47.306Z,47.66
2023-02-17T19:41:15.465Z,48.11
2023-02-17T19:43:43.282Z,48.25
2023-02-17T19:46:15.802Z,48.30
2023-02-17T19:48:42.909Z,47.95
2023-02-17T19:51:12.753Z,48.15
2023-02-17T19:53:40.989Z,48.25
2023-02-17T19:56:17.206Z,48.21
2023-02-17T19:58:46.081Z,46.79
2023-02-17T20:01:16.552Z,47.57
2023-02-17T20:03:44.162Z,48.03
2023-02-17T20:06:17.616Z,48.03
2023-02-17T20:08:47.200Z,47.82
2023-02-17T20:11:15.237Z,48.07
2023-02-17T20:13:46.060Z,47.56
2023-02-17T20:16:16.023Z,47.74
2023-02-17T20:18:48.548Z,47.65
2023-02-17T20:21:19.162Z,47.73
2023-02-17T20:23:46.465Z,48.06
2023-02-17T20:26:20.444Z,47.80
2023-02-17T20:28:48.081Z,47.54
2023-02-17T20:31:16.003Z,47.52
2023-02-17T20:33:43.292Z,47.66
2023-02-17T20:36:12.427Z,47.32
2023-02-17T20:38:40.486Z,47.62
2023-02-17T20:41:09.404Z,47.57
2023-02-17T20:43:38.013Z,47.67
2023-02-17T20:46:05.724Z,47.49
2023-02-17T20:48:33.830Z,47.36
2023-02-17T20:51:04.768Z,45.60
2023-02-17T20:53:33.588Z,46.91
2023-02-17T20:56:01.549Z,48.99
2023-02-17T20:58:30.014Z,47.67
2023-02-17T21:00:57.272Z,47.46
2023-02-17T21:03:24.941Z,47.30
2023-02-17T21:05:52.235Z,47.56
2023-02-17T21:08:19.441Z,47.38
2023-02-17T21:10:46.801Z,47.19
2023-02-17T21:13:14.090Z,47.43
2023-02-17T21:15:42.316Z,47.30
2023-02-17T21:18:09.815Z,47.55
2023-02-17T21:20:40.677Z,47.67
2023-02-17T21:23:08.731Z,47.58
2023-02-17T21:25:38.015Z,47.48
2023-02-17T21:28:06.865Z,47.30
2023-02-17T21:30:35.762Z,47.45
2023-02-17T21:33:03.942Z,47.62
2023-02-17T21:35:31.072Z,47.68
2023-02-17T21:37:59.584Z,47.44
2023-02-17T21:40:26.529Z,47.58
2023-02-17T21:43:14.712Z,47.66
2023-02-17T21:45:45.004Z,47.91
2023-02-17T21:48:13.254Z,47.62
2023-02-17T21:50:40.448Z,47.91
2023-02-17T21:53:07.793Z,47.50
2023-02-17T21:55:35.312Z,47.64
2023-02-17T21:58:02.567Z,47.49
2023-02-17T22:00:29.636Z,47.78
2023-02-17T22:02:56.857Z,47.60
2023-02-17T22:05:24.170Z,47.79
2023-02-17T22:07:51.831Z,47.68
2023-02-17T22:10:19.049Z,48.58
2023-02-17T22:12:55.595Z,48.07
2023-02-17T22:15:22.673Z,48.11
2023-02-17T22:17:49.731Z,48.17
2023-02-17T22:20:17.279Z,48.38
2023-02-17T22:22:44.600Z,48.52
2023-02-17T22:25:11.864Z,48.50
2023-02-17T22:27:38.992Z,48.36
2023-02-17T22:30:06.742Z,48.55
2023-02-17T22:32:33.854Z,48.92
2023-02-17T22:35:01.220Z,48.78
2023-02-17T22:37:28.450Z,48.94
2023-02-17T22:39:56.807Z,48.95
2023-02-17T22:42:24.919Z,49.01
2023-02-17T22:44:51.876Z,49.03
2023-02-17T22:47:18.855Z,49.09
2023-02-17T22:49:45.966Z,49.17
2023-02-17T22:52:12.958Z,49.17
2023-02-17T22:54:41.260Z,49.44
2023-02-17T22:57:08.589Z,49.39
2023-02-17T22:59:35.814Z,49.63
2023-02-17T23:02:02.935Z,49.54
2023-02-17T23:04:30.230Z,49.63
2023-02-17T23:06:57.606Z,49.68
2023-02-17T23:09:24.571Z,49.70
2023-02-17T23:11:54.330Z,49.79
2023-02-17T23:14:37.375Z,49.77
2023-02-17T23:17:09.927Z,49.85
2023-02-17T23:19:38.602Z,49.83
2023-02-17T23:22:12.159Z,49.94
2023-02-17T23:24:39.103Z,50.12
2023-02-17T23:27:06.000Z,50.01
2023-02-17T23:29:33.324Z,50.15
2023-02-17T23:32:00.495Z,50.17
2023-02-17T23:34:28.558Z,50.27
2023-02-17T23:36:55.663Z,50.45
2023-02-17T23:39:22.986Z,50.20
2023-02-17T23:41:49.917Z,50.23
2023-02-17T23:44:17.657Z,50.53
2023-02-17T23:46:45.501Z,50.40
2023-02-17T23:49:17.390Z,50.47
2023-02-17T23:51:45.458Z,50.58
2023-02-17T23:54:13.393Z,50.67
2023-02-17T23:56:40.612Z,50.63
2023-02-17T23:59:08.289Z,50.72
